Time;durP1;ratioP1;P1;durP2;ratioP2;P2;SDS_P1;SDS_P2;PMS_P1;PMS_P2;Temp;Humidity;BMP_temperature;BMP_pressure;BME280_temperature;BME280_humidity;BME280_pressure;Samples;Min_cycle;Max_cycle;Signal;HPM_P1;HPM_P2
2022/12/22 03:28:08;;;;;;;22.67;11.10;;;7.80;99.90;;;;;;5060980;28;20025;-86
2022/12/22 03:30:34;;;;;;;20.90;11.60;;;7.80;99.90;;;;;;5051961;28;20032;-86
2022/12/22 03:33:00;;;;;;;19.50;11.07;;;7.90;99.90;;;;;;5035509;28;20033;-86
2022/12/22 03:35:26;;;;;;;21.52;11.02;;;7.90;99.90;;;;;;5068513;28;20075;-86
2022/12/22 03:37:51;;;;;;;19.27;10.73;;;7.90;99.90;;;;;;5035123;28;20465;-86
2022/12/22 03:40:18;;;;;;;20.88;11.50;;;7.80;99.90;;;;;;5051665;28;20094;-86
2022/12/22 03:48:12;;;;;;;19.52;11.35;;;7.80;99.90;;;;;;5059955;28;20048;-87
2022/12/22 03:50:37;;;;;;;18.48;10.90;;;7.80;99.90;;;;;;5034774;28;20067;-86
2022/12/22 03:53:04;;;;;;;21.52;10.57;;;7.80;99.90;;;;;;5051782;28;20063;-86
2022/12/22 03:55:30;;;;;;;20.02;9.55;;;7.80;99.90;;;;;;5051378;28;20102;-86
2022/12/22 03:57:55;;;;;;;23.55;10.27;;;7.80;99.90;;;;;;5051319;28;20036;-86
2022/12/22 04:00:22;;;;;;;21.92;10.30;;;7.80;99.90;;;;;;5050826;28;20021;-86
2022/12/22 04:02:47;;;;;;;18.75;9.30;;;7.80;99.90;;;;;;5052268;28;20468;-86
2022/12/22 04:05:13;;;;;;;16.13;8.93;;;7.80;99.90;;;;;;5050945;28;20025;-86
2022/12/22 04:07:39;;;;;;;15.75;8.63;;;7.80;99.90;;;;;;5051335;28;20032;-86
2022/12/22 04:12:53;;;;;;;14.70;7.47;;;7.80;99.90;;;;;;5065531;28;20030;-86
2022/12/22 04:15:28;;;;;;;18.75;7.22;;;7.80;99.90;;;;;;5034595;28;20037;-86
2022/12/22 04:17:54;;;;;;;13.93;6.68;;;7.90;99.90;;;;;;5067682;28;20040;-86
2022/12/22 04:20:21;;;;;;;21.83;8.38;;;7.90;99.90;;;;;;5050759;28;20041;-86
2022/12/22 04:22:47;;;;;;;12.77;6.20;;;7.80;99.90;;;;;;5067765;28;20040;-86
2022/12/22 04:25:13;;;;;;;12.00;6.20;;;7.80;99.90;;;;;;5068107;28;20727;-86
2022/12/22 04:27:39;;;;;;;16.58;7.30;;;7.80;99.90;;;;;;5050982;28;20384;-86
2022/12/22 04:30:06;;;;;;;10.35;6.20;;;7.80;99.90;;;;;;5050886;28;20032;-87
2022/12/22 04:32:32;;;;;;;11.25;5.68;;;7.80;99.90;;;;;;5051423;28;20025;-86
2022/12/22 04:34:58;;;;;;;13.48;6.75;;;7.80;99.90;;;;;;5051265;28;20094;-87
2022/12/22 04:37:39;;;;;;;13.63;7.05;;;7.80;99.90;;;;;;5034426;28;20432;-87
2022/12/22 04:40:05;;;;;;;10.18;6.00;;;7.80;99.90;;;;;;5034101;28;20451;-87
2022/12/22 04:42:30;;;;;;;22.38;6.57;;;7.80;99.90;;;;;;5067866;28;20430;-86
2022/12/22 04:44:56;;;;;;;13.90;6.72;;;7.80;99.90;;;;;;5034541;28;20033;-86
2022/12/22 04:47:22;;;;;;;15.82;6.55;;;7.80;99.90;;;;;;5034275;28;20033;-85
2022/12/22 04:49:47;;;;;;;18.60;6.18;;;7.80;99.90;;;;;;5033980;28;20048;-86
2022/12/22 04:52:13;;;;;;;18.83;7.10;;;7.80;99.90;;;;;;5049990;28;20032;-86
2022/12/22 04:54:39;;;;;;;12.38;6.35;;;7.80;99.90;;;;;;5050245;28;20469;-86
2022/12/22 04:57:04;;;;;;;19.75;6.43;;;7.80;99.90;;;;;;5050432;28;20396;-86
2022/12/22 04:59:30;;;;;;;14.98;7.03;;;7.80;99.90;;;;;;5067177;28;20064;-86
2022/12/22 05:01:56;;;;;;;23.02;6.75;;;7.80;99.90;;;;;;5050522;28;20032;-85
2022/12/22 05:04:21;;;;;;;13.43;6.22;;;7.80;99.90;;;;;;5050424;28;20029;-85
2022/12/22 05:06:47;;;;;;;16.88;7.85;;;7.80;99.90;;;;;;5050282;28;20476;-86
2022/12/22 05:09:13;;;;;;;12.68;6.82;;;7.80;99.90;;;;;;5066849;28;20063;-85
2022/12/22 05:11:38;;;;;;;13.95;6.32;;;7.80;99.90;;;;;;5067117;28;20029;-85
2022/12/22 05:14:04;;;;;;;18.00;5.78;;;7.80;99.90;;;;;;5050018;28;20037;-85
2022/12/22 05:16:30;;;;;;;10.43;4.80;;;7.90;99.90;;;;;;5067046;28;20063;-85
2022/12/22 05:18:56;;;;;;;11.93;5.70;;;7.80;99.90;;;;;;5051511;28;20104;-85
2022/12/22 05:21:22;;;;;;;11.15;5.50;;;7.90;99.90;;;;;;5066460;28;20037;-85
2022/12/22 05:23:49;;;;;;;15.68;5.90;;;7.90;99.90;;;;;;5033339;28;20094;-85
2022/12/22 05:26:16;;;;;;;17.65;5.45;;;7.90;99.90;;;;;;5050101;28;20044;-85
2022/12/22 05:28:43;;;;;;;12.35;5.35;;;7.90;99.90;;;;;;5033232;28;20365;-85
2022/12/22 05:31:17;;;;;;;16.23;5.57;;;7.90;99.90;;;;;;5033408;28;20033;-85
2022/12/22 05:33:42;;;;;;;10.43;5.20;;;7.90;99.90;;;;;;5050226;28;20472;-85
2022/12/22 05:36:08;;;;;;;15.00;5.57;;;8.00;99.90;;;;;;5033457;28;20109;-85
2022/12/22 05:38:34;;;;;;;16.70;6.50;;;7.90;99.90;;;;;;5051033;28;20040;-85
2022/12/22 05:40:59;;;;;;;14.88;6.43;;;7.90;99.90;;;;;;5049159;28;20084;-85
2022/12/22 05:43:25;;;;;;;20.92;6.55;;;8.00;99.90;;;;;;5049885;28;20032;-85
2022/12/22 05:45:52;;;;;;;24.25;8.30;;;8.00;99.90;;;;;;5066562;28;20052;-86
2022/12/22 05:48:18;;;;;;;13.30;6.90;;;8.00;99.90;;;;;;5053745;28;20029;-85
2022/12/22 05:50:44;;;;;;;22.70;8.90;;;8.00;99.90;;;;;;5053672;28;20033;-86
2022/12/22 05:53:09;;;;;;;19.48;9.18;;;8.00;99.90;;;;;;5036835;28;20756;-86
2022/12/22 05:55:35;;;;;;;19.40;10.23;;;8.00;99.90;;;;;;5053022;28;20075;-85
2022/12/22 05:58:01;;;;;;;36.15;11.30;;;8.00;99.90;;;;;;5053079;28;20029;-85
2022/12/22 06:00:28;;;;;;;28.95;12.13;;;8.00;99.90;;;;;;5070230;28;20494;-86
2022/12/22 06:02:54;;;;;;;24.83;10.65;;;8.00;99.90;;;;;;5034503;28;20029;-86
2022/12/22 06:05:20;;;;;;;21.80;11.02;;;8.00;99.90;;;;;;5053642;28;20035;-86
2022/12/22 06:07:46;;;;;;;19.95;11.65;;;8.00;99.90;;;;;;5036721;28;20025;-85
2022/12/22 06:10:13;;;;;;;24.60;12.18;;;8.00;99.90;;;;;;5052906;28;20086;-85
2022/12/22 06:12:39;;;;;;;33.03;13.57;;;8.00;99.90;;;;;;5053601;28;20037;-86
2022/12/22 06:15:06;;;;;;;30.60;14.45;;;8.00;99.90;;;;;;5052854;28;20044;-85
2022/12/22 06:17:31;;;;;;;38.90;15.30;;;8.00;99.90;;;;;;5053056;28;20036;-86
2022/12/22 06:19:57;;;;;;;32.65;13.82;;;8.10;99.90;;;;;;5052973;28;20063;-86
2022/12/22 06:22:23;;;;;;;29.08;14.05;;;8.00;99.90;;;;;;5070001;28;20021;-86
2022/12/22 06:24:48;;;;;;;29.52;13.27;;;8.00;99.90;;;;;;5053040;28;20052;-86
2022/12/22 06:27:14;;;;;;;33.85;12.32;;;8.10;99.90;;;;;;5052697;28;20033;-86
2022/12/22 06:29:40;;;;;;;30.17;13.00;;;8.00;99.90;;;;;;5053211;28;20025;-86
2022/12/22 06:32:05;;;;;;;26.40;11.52;;;8.00;99.90;;;;;;5036364;28;20037;-86
2022/12/22 06:34:31;;;;;;;31.95;13.10;;;8.00;99.90;;;;;;5053138;28;20032;-86
2022/12/22 06:36:57;;;;;;;27.05;10.40;;;7.90;99.90;;;;;;5034108;28;20489;-86
2022/12/22 06:39:22;;;;;;;30.75;11.35;;;8.00;99.90;;;;;;5052573;28;20032;-86
2022/12/22 06:44:32;;;;;;;31.38;11.40;;;8.00;99.90;;;;;;5048227;28;20048;-86
2022/12/22 06:46:58;;;;;;;23.52;10.02;;;8.00;99.90;;;;;;5052360;28;20471;-86
2022/12/22 06:49:24;;;;;;;31.85;11.27;;;8.00;99.90;;;;;;5052555;28;20025;-86
2022/12/22 06:51:49;;;;;;;23.42;9.68;;;8.00;99.90;;;;;;5052617;28;20114;-86
2022/12/22 06:54:15;;;;;;;18.35;9.23;;;8.00;99.90;;;;;;5035924;28;20037;-86
2022/12/22 06:56:41;;;;;;;28.92;9.25;;;8.00;99.90;;;;;;5035677;28;20520;-86
2022/12/22 06:59:06;;;;;;;27.95;9.30;;;8.00;99.90;;;;;;5051222;28;20029;-85
2022/12/22 07:01:32;;;;;;;37.45;10.55;;;7.90;99.90;;;;;;5051953;28;20051;-85
2022/12/22 07:03:58;;;;;;;30.77;10.23;;;7.90;99.90;;;;;;5052394;28;20476;-85
2022/12/22 07:06:24;;;;;;;26.73;9.07;;;8.00;99.90;;;;;;5044308;28;20500;-85
2022/12/22 07:09:03;;;;;;;30.08;8.85;;;7.90;99.90;;;;;;5067391;28;20735;-86
2022/12/22 07:11:28;;;;;;;32.30;7.93;;;7.90;99.90;;;;;;5060077;28;20476;-85
2022/12/22 07:13:54;;;;;;;23.88;7.03;;;8.00;99.90;;;;;;5048669;28;20040;-86
2022/12/22 07:16:20;;;;;;;32.15;8.05;;;7.90;99.90;;;;;;5043506;28;20032;-85
2022/12/22 07:18:46;;;;;;;26.60;7.95;;;7.90;99.90;;;;;;5051104;28;20033;-85
2022/12/22 07:21:13;;;;;;;27.10;7.40;;;7.90;99.90;;;;;;5045747;28;21298;-88
2022/12/22 07:23:39;;;;;;;26.42;7.88;;;7.90;99.90;;;;;;5045044;28;20150;-87
2022/12/22 07:26:06;;;;;;;25.63;8.73;;;7.90;99.90;;;;;;5043790;28;20567;-88
2022/12/22 07:28:34;;;;;;;41.45;9.70;;;7.90;99.90;;;;;;5064136;28;20049;-88
2022/12/22 07:31:00;;;;;;;32.17;9.88;;;7.90;99.90;;;;;;5065935;28;20033;-88
2022/12/22 07:34:18;;;;;;;29.45;9.65;;;7.90;99.90;;;;;;5045851;28;20384;-88
2022/12/22 07:36:44;;;;;;;31.20;9.80;;;7.90;99.90;;;;;;5046178;28;20033;-87
2022/12/22 07:39:11;;;;;;;39.50;11.32;;;7.90;99.90;;;;;;5043508;28;20091;-88
2022/12/22 07:44:22;;;;;;;38.30;10.00;;;7.80;99.90;;;;;;5061523;28;20025;-87
2022/12/22 07:46:49;;;;;;;28.70;9.70;;;7.80;99.90;;;;;;5042498;28;20547;-87
2022/12/22 07:51:59;;;;;;;41.28;9.30;;;7.80;99.90;;;;;;5049542;28;20078;-87
2022/12/22 07:54:25;;;;;;;34.65;8.77;;;7.80;99.90;;;;;;5049657;28;20042;-88
2022/12/22 07:56:51;;;;;;;44.85;9.80;;;7.80;99.90;;;;;;5048118;28;20032;-88
2022/12/22 07:59:17;;;;;;;29.05;8.18;;;7.80;99.90;;;;;;5046023;28;20025;-88
2022/12/22 08:01:44;;;;;;;48.60;9.93;;;7.80;99.90;;;;;;5021553;28;20479;-88
2022/12/22 08:04:10;;;;;;;33.38;8.70;;;7.80;99.90;;;;;;5049334;28;20030;-88
2022/12/22 08:06:37;;;;;;;33.45;7.57;;;7.80;99.90;;;;;;5047559;28;20510;-88
2022/12/22 08:09:04;;;;;;;35.88;7.35;;;7.80;99.90;;;;;;5047578;28;20032;-87
2022/12/22 08:11:30;;;;;;;29.98;7.35;;;7.70;99.90;;;;;;5047619;28;20116;-88
2022/12/22 08:13:56;;;;;;;32.88;6.80;;;7.70;99.90;;;;;;5047590;28;20025;-88
2022/12/22 08:16:22;;;;;;;34.88;6.88;;;7.70;99.90;;;;;;5050211;28;20038;-87
2022/12/22 08:18:48;;;;;;;35.95;8.75;;;7.70;99.90;;;;;;5046698;28;20029;-87
2022/12/22 08:21:14;;;;;;;28.58;7.22;;;7.80;99.90;;;;;;5050648;28;20029;-87
2022/12/22 08:23:40;;;;;;;32.95;6.50;;;7.70;99.90;;;;;;5042602;28;20033;-88
2022/12/22 08:26:38;;;;;;;31.30;7.18;;;7.80;99.90;;;;;;5050861;28;20511;-87
2022/12/22 08:29:18;;;;;;;43.25;7.55;;;7.70;99.90;;;;;;5016939;28;20044;-87
2022/12/22 08:31:44;;;;;;;40.80;7.05;;;7.80;99.90;;;;;;5039747;28;20026;-88
2022/12/22 08:34:12;;;;;;;38.33;7.78;;;7.70;99.90;;;;;;5050160;28;20082;-87
2022/12/22 08:36:44;;;;;;;41.05;8.95;;;7.70;99.90;;;;;;5043510;28;20053;-87
2022/12/22 08:39:12;;;;;;;40.72;9.68;;;7.70;99.90;;;;;;5048985;28;20028;-87
2022/12/22 08:41:49;;;;;;;55.40;11.95;;;7.70;99.90;;;;;;5059372;28;20033;-87
2022/12/22 08:44:24;;;;;;;43.78;8.38;;;7.70;99.90;;;;;;5047621;28;20033;-87
2022/12/22 08:46:51;;;;;;;38.67;7.35;;;7.70;99.90;;;;;;5046652;28;20040;-87
2022/12/22 08:49:18;;;;;;;47.80;7.28;;;7.70;99.90;;;;;;5047110;28;20460;-87
2022/12/22 08:51:44;;;;;;;36.58;7.85;;;7.70;99.90;;;;;;5047811;28;20383;-87
2022/12/22 08:54:10;;;;;;;47.03;8.85;;;7.70;99.90;;;;;;5047286;28;20057;-87
2022/12/22 08:56:36;;;;;;;43.70;6.88;;;7.80;99.90;;;;;;5048069;28;20025;-87
2022/12/22 08:59:04;;;;;;;35.25;7.43;;;7.80;99.90;;;;;;5032538;28;20430;-87
2022/12/22 09:01:34;;;;;;;41.00;7.15;;;7.80;99.90;;;;;;5066991;28;20086;-87
2022/12/22 09:04:01;;;;;;;30.98;6.38;;;7.90;99.90;;;;;;5051262;28;20033;-87
2022/12/22 09:06:27;;;;;;;39.42;9.20;;;7.80;99.90;;;;;;5055023;28;20137;-87
2022/12/22 09:09:01;;;;;;;39.45;7.43;;;7.80;99.90;;;;;;5035832;28;20070;-87
2022/12/22 09:11:28;;;;;;;40.63;7.03;;;7.80;99.90;;;;;;5034662;28;20021;-87
2022/12/22 09:13:56;;;;;;;34.03;5.90;;;7.80;99.90;;;;;;5035021;28;20048;-87
2022/12/22 09:16:23;;;;;;;42.88;7.63;;;7.70;99.90;;;;;;5053234;28;20029;-87
2022/12/22 09:18:49;;;;;;;53.53;7.05;;;7.70;99.90;;;;;;5051435;28;20025;-87
2022/12/22 09:21:15;;;;;;;39.67;7.38;;;7.70;99.90;;;;;;5053867;28;20029;-88
2022/12/22 09:23:41;;;;;;;37.92;7.00;;;7.70;99.90;;;;;;5072095;28;20079;-88
2022/12/22 09:26:09;;;;;;;41.88;7.30;;;7.80;99.90;;;;;;5054850;28;20025;-88
2022/12/22 09:28:35;;;;;;;30.58;7.30;;;7.80;99.90;;;;;;5054830;28;20025;-87
2022/12/22 09:31:02;;;;;;;38.13;6.47;;;7.80;99.90;;;;;;5071391;28;20025;-87
2022/12/22 09:33:27;;;;;;;41.35;6.43;;;7.80;99.90;;;;;;5071819;28;20518;-87
2022/12/22 09:35:53;;;;;;;33.53;6.70;;;7.70;99.90;;;;;;5054815;28;20028;-87
2022/12/22 09:38:19;;;;;;;33.70;6.63;;;7.70;99.90;;;;;;5058420;28;20635;-88
2022/12/22 09:40:45;;;;;;;29.77;7.50;;;7.70;99.90;;;;;;5068628;28;20095;-87
2022/12/22 09:43:20;;;;;;;34.08;7.53;;;7.70;99.90;;;;;;5038012;28;20112;-87
2022/12/22 09:45:46;;;;;;;26.27;8.43;;;7.70;99.90;;;;;;5070794;28;20029;-87
2022/12/22 09:48:12;;;;;;;29.08;6.35;;;7.70;99.90;;;;;;5037609;28;20664;-86
2022/12/22 09:50:40;;;;;;;27.85;5.43;;;7.80;99.90;;;;;;5054400;28;20468;-87
2022/12/22 09:53:19;;;;;;;43.40;5.88;;;7.80;99.90;;;;;;5054191;28;20720;-87
2022/12/22 09:55:47;;;;;;;39.80;6.93;;;7.70;99.90;;;;;;5042727;28;20064;-87
2022/12/22 09:58:33;;;;;;;35.58;8.23;;;7.70;99.90;;;;;;5052235;28;20064;-87
2022/12/22 10:01:06;;;;;;;36.53;6.63;;;7.70;99.90;;;;;;5037515;28;20086;-87
2022/12/22 10:03:42;;;;;;;28.48;5.65;;;7.80;99.90;;;;;;5056431;28;20029;-87
2022/12/22 10:06:11;;;;;;;20.63;5.13;;;7.80;99.90;;;;;;5037322;28;20025;-87
2022/12/22 10:08:39;;;;;;;32.15;7.05;;;7.80;99.90;;;;;;5037486;28;20029;-87
2022/12/22 10:11:06;;;;;;;30.70;5.68;;;7.80;99.90;;;;;;5037288;28;20044;-87
2022/12/22 10:13:32;;;;;;;22.70;4.72;;;7.80;99.90;;;;;;5055805;28;20055;-86
2022/12/22 10:15:58;;;;;;;25.23;5.22;;;7.80;99.90;;;;;;5054360;28;20503;-87
2022/12/22 10:18:28;;;;;;;21.40;4.93;;;7.70;99.90;;;;;;5053778;28;20025;-87
2022/12/22 10:21:13;;;;;;;27.42;5.70;;;7.70;99.90;;;;;;5055310;28;20025;-88
2022/12/22 10:23:43;;;;;;;19.10;5.53;;;7.70;99.90;;;;;;5053894;28;20450;-87
2022/12/22 10:26:23;;;;;;;21.20;5.25;;;7.70;99.90;;;;;;5039934;28;20033;-87
2022/12/22 10:28:53;;;;;;;28.48;6.82;;;7.70;99.90;;;;;;5070007;28;20067;-87
2022/12/22 10:31:33;;;;;;;19.52;5.63;;;7.80;99.90;;;;;;5036455;28;20029;-87
2022/12/22 10:34:16;;;;;;;14.35;4.20;;;7.80;99.90;;;;;;5036868;28;20125;-87
2022/12/22 10:36:47;;;;;;;8.90;4.43;;;7.70;99.90;;;;;;5036882;28;20102;-86
2022/12/22 10:39:23;;;;;;;16.33;5.40;;;7.70;99.90;;;;;;5036473;28;20078;-87
2022/12/22 10:41:53;;;;;;;22.23;6.13;;;7.70;99.90;;;;;;5037081;28;20041;-87
2022/12/22 10:44:29;;;;;;;21.20;5.65;;;7.70;99.90;;;;;;5056266;28;20024;-86
2022/12/22 10:46:58;;;;;;;14.25;5.63;;;7.70;99.90;;;;;;5049340;28;20110;-87
2022/12/22 10:49:38;;;;;;;22.38;6.28;;;7.70;99.90;;;;;;5052358;28;20064;-86
2022/12/22 10:52:19;;;;;;;21.05;5.32;;;7.70;99.90;;;;;;5052432;28;20020;-87
2022/12/22 10:54:45;;;;;;;17.70;4.57;;;7.70;99.90;;;;;;5056547;28;20694;-87
2022/12/22 10:57:15;;;;;;;20.52;6.07;;;7.70;99.90;;;;;;5052385;28;20033;-87
2022/12/22 11:00:00;;;;;;;21.42;9.40;;;7.70;99.90;;;;;;5046239;28;20040;-86
2022/12/22 11:02:33;;;;;;;14.10;4.68;;;7.70;99.90;;;;;;5050327;28;20037;-87
2022/12/22 11:05:05;;;;;;;14.73;5.20;;;7.60;99.90;;;;;;5044570;28;20443;-87
2022/12/22 11:08:08;;;;;;;18.63;4.55;;;7.70;99.90;;;;;;5046156;28;20116;-86
2022/12/22 11:10:52;;;;;;;15.57;5.50;;;7.70;99.90;;;;;;5024725;28;20025;-87
2022/12/22 11:13:58;;;;;;;17.33;6.20;;;7.70;99.90;;;;;;5050090;28;20033;-86
2022/12/22 11:16:49;;;;;;;23.65;8.63;;;7.70;99.90;;;;;;5048043;28;20033;-87
2022/12/22 11:19:34;;;;;;;;;;;7.70;99.90;;;;;;5051012;28;20045;-87
2022/12/22 11:22:13;;;;;;;13.75;5.60;;;7.70;99.90;;;;;;5052654;28;19920;-88
2022/12/22 11:25:12;;;;;;;13.38;4.35;;;7.70;99.90;;;;;;5062170;28;20031;-87
2022/12/22 11:27:42;;;;;;;13.90;4.93;;;7.70;99.90;;;;;;5053954;28;20494;-87
2022/12/22 11:30:22;;;;;;;13.65;5.53;;;7.60;99.90;;;;;;5051874;28;20027;-88
2022/12/22 11:33:06;;;;;;;15.98;5.00;;;7.60;99.90;;;;;;5046625;28;20040;-87
2022/12/22 11:35:55;;;;;;;21.08;4.53;;;7.60;99.90;;;;;;5052143;28;20041;-87
2022/12/22 11:38:29;;;;;;;23.63;4.93;;;7.70;99.90;;;;;;5068269;28;20031;-88
2022/12/22 11:41:25;;;;;;;12.90;4.60;;;7.70;99.90;;;;;;5052344;28;20594;-88
2022/12/22 11:44:05;;;;;;;15.27;4.30;;;7.70;99.90;;;;;;5038827;28;20041;-87
2022/12/22 11:46:46;;;;;;;13.60;3.90;;;7.70;99.90;;;;;;5061007;28;20036;-87
2022/12/22 11:49:17;;;;;;;9.95;3.80;;;7.70;99.90;;;;;;5035632;28;20028;-87
2022/12/22 11:52:01;;;;;;;22.00;4.38;;;7.70;99.90;;;;;;5052157;28;20044;-87
2022/12/22 11:54:56;;;;;;;9.07;3.63;;;7.70;99.90;;;;;;5035564;28;20039;-87
2022/12/22 11:57:43;;;;;;;9.35;3.40;;;7.70;99.90;;;;;;5039015;28;20040;-87
2022/12/22 12:00:10;;;;;;;12.18;4.30;;;7.70;99.90;;;;;;5050518;28;20037;-86
2022/12/22 12:03:04;;;;;;;10.80;3.83;;;7.70;99.90;;;;;;5050787;28;20021;-87
2022/12/22 12:06:06;;;;;;;13.40;4.05;;;7.70;99.90;;;;;;5067436;28;20079;-88
2022/12/22 12:08:57;;;;;;;13.82;6.82;;;7.70;99.90;;;;;;5067733;28;20025;-87
2022/12/22 12:11:46;;;;;;;19.87;4.30;;;7.70;99.90;;;;;;5050951;28;20048;-87
2022/12/22 12:14:46;;;;;;;13.77;4.45;;;7.70;99.90;;;;;;5051821;28;20033;-88
2022/12/22 12:17:39;;;;;;;10.45;2.88;;;7.60;99.90;;;;;;5033557;28;20033;-87
2022/12/22 12:20:36;;;;;;;3.90;2.38;;;7.70;99.90;;;;;;5024675;28;20128;-87
2022/12/22 12:23:36;;;;;;;11.52;2.72;;;7.70;99.90;;;;;;5046419;28;20033;-87
2022/12/22 12:26:28;;;;;;;10.40;2.80;;;7.70;99.90;;;;;;5054287;28;20049;-87
2022/12/22 12:29:05;;;;;;;9.85;2.65;;;7.70;99.90;;;;;;5044552;28;20040;-87
2022/12/22 12:31:38;;;;;;;6.65;3.10;;;7.70;99.90;;;;;;5050763;28;20700;-87
2022/12/22 12:34:13;;;;;;;9.05;4.07;;;7.70;99.90;;;;;;5022634;28;20030;-87
2022/12/22 12:36:41;;;;;;;9.07;2.90;;;7.70;99.90;;;;;;5060318;28;20064;-87
2022/12/22 12:39:17;;;;;;;5.63;3.10;;;7.70;99.90;;;;;;5049665;28;20040;-87
2022/12/22 12:42:06;;;;;;;13.43;2.88;;;7.70;99.90;;;;;;5039562;28;20043;-87
2022/12/22 12:44:35;;;;;;;10.93;5.32;;;7.70;99.90;;;;;;5060976;28;20031;-87
2022/12/22 12:47:20;;;;;;;7.53;3.80;;;7.70;99.90;;;;;;5049910;28;20025;-88
2022/12/22 12:50:24;;;;;;;8.45;2.97;;;7.70;99.90;;;;;;5060981;28;20029;-86
2022/12/22 12:52:49;;;;;;;5.32;3.17;;;7.70;99.90;;;;;;5044035;28;20026;-86
2022/12/22 12:55:44;;;;;;;6.47;3.38;;;7.70;99.90;;;;;;5052961;28;20044;-86
2022/12/22 12:58:31;;;;;;;7.40;2.80;;;7.70;99.90;;;;;;5030633;28;20053;-87
2022/12/22 13:00:57;;;;;;;6.13;2.83;;;7.70;99.90;;;;;;5029385;28;20032;-87
2022/12/22 13:03:22;;;;;;;7.72;4.43;;;7.60;99.90;;;;;;5034372;28;20025;-87
2022/12/22 13:05:49;;;;;;;9.15;2.97;;;7.70;99.90;;;;;;5033651;28;20032;-87
2022/12/22 13:08:25;;;;;;;11.02;4.30;;;7.60;99.90;;;;;;5032656;28;20042;-86
2022/12/22 13:10:54;;;;;;;4.45;2.85;;;7.60;99.90;;;;;;5047833;28;20024;-87
2022/12/22 13:13:25;;;;;;;6.70;2.80;;;7.70;99.90;;;;;;5047100;28;20128;-87
2022/12/22 13:16:03;;;;;;;7.78;2.80;;;7.70;99.90;;;;;;5026995;28;20040;-88
2022/12/22 13:18:32;;;;;;;12.45;3.22;;;7.60;99.90;;;;;;5035828;28;20494;-87
2022/12/22 13:21:12;;;;;;;7.03;2.78;;;7.60;99.90;;;;;;5048925;28;20110;-88
2022/12/22 13:23:44;;;;;;;8.45;3.22;;;7.60;99.90;;;;;;5059228;28;20403;-87
2022/12/22 13:26:16;;;;;;;7.20;2.35;;;7.70;99.90;;;;;;5028049;28;20044;-87
2022/12/22 13:28:47;;;;;;;8.48;2.47;;;7.60;99.90;;;;;;5050558;28;20064;-88
2022/12/22 13:31:19;;;;;;;13.52;2.25;;;7.60;99.90;;;;;;5047899;28;20528;-88
2022/12/22 13:34:02;;;;;;;8.32;3.55;;;7.60;99.90;;;;;;5028696;28;20895;-88
2022/12/22 13:36:30;;;;;;;6.43;2.83;;;7.50;99.90;;;;;;5053311;28;20033;-87
2022/12/22 13:39:00;;;;;;;7.25;2.88;;;7.60;99.90;;;;;;5028267;28;20033;-87
2022/12/22 13:41:27;;;;;;;6.90;3.03;;;7.60;99.90;;;;;;5062844;28;20550;-87
2022/12/22 13:44:00;;;;;;;9.23;2.22;;;7.50;99.90;;;;;;5032600;28;20033;-87
2022/12/22 13:46:26;;;;;;;13.85;3.97;;;7.50;99.90;;;;;;5046774;28;20148;-87
2022/12/22 13:48:55;;;;;;;6.30;2.33;;;7.50;99.90;;;;;;5025004;28;20481;-87
2022/12/22 13:51:27;;;;;;;4.60;2.22;;;7.50;99.90;;;;;;5046940;28;20033;-87
2022/12/22 13:53:59;;;;;;;14.70;3.45;;;7.50;99.90;;;;;;5041561;28;20070;-88
2022/12/22 13:56:37;;;;;;;3.10;2.20;;;7.50;99.90;;;;;;5057230;28;20037;-87
2022/12/22 13:59:03;;;;;;;5.68;1.85;;;7.50;99.90;;;;;;5043631;28;20029;-88
2022/12/22 14:01:29;;;;;;;3.78;2.17;;;7.50;99.90;;;;;;5050691;28;20387;-88
2022/12/22 14:04:06;;;;;;;7.15;3.20;;;7.50;99.90;;;;;;5064807;28;20208;-88
2022/12/22 14:06:39;;;;;;;5.82;2.20;;;7.40;99.90;;;;;;5050453;28;20029;-88
2022/12/22 14:09:26;;;;;;;3.88;2.28;;;7.40;99.90;;;;;;5053935;28;20468;-88
2022/12/22 14:12:01;;;;;;;6.85;2.97;;;7.40;99.90;;;;;;5054679;28;20029;-88
2022/12/22 14:14:39;;;;;;;10.20;6.72;;;7.40;99.90;;;;;;5038040;28;20103;-89
2022/12/22 14:17:19;;;;;;;13.07;8.40;;;7.50;99.90;;;;;;5054020;28;20041;-88
2022/12/22 14:19:48;;;;;;;10.70;6.32;;;7.50;99.90;;;;;;5042511;28;20033;-88
2022/12/22 14:22:19;;;;;;;23.45;13.20;;;7.50;99.90;;;;;;5034697;28;20034;-87
2022/12/22 14:24:53;;;;;;;10.77;5.32;;;7.50;99.90;;;;;;5037352;28;20053;-88
2022/12/22 14:27:45;;;;;;;25.73;11.68;;;7.60;99.90;;;;;;5053893;28;20458;-88
2022/12/22 14:30:19;;;;;;;14.07;5.40;;;7.60;99.90;;;;;;5048997;28;20430;-88
2022/12/22 14:32:50;;;;;;;15.63;5.28;;;7.60;99.90;;;;;;5053451;28;20025;-88
2022/12/22 14:35:21;;;;;;;7.53;4.60;;;7.60;99.90;;;;;;5036768;28;20036;-88
2022/12/22 14:37:50;;;;;;;10.85;4.40;;;7.60;99.90;;;;;;5065449;28;20043;-88
2022/12/22 14:40:32;;;;;;;15.60;4.38;;;7.60;99.90;;;;;;5054704;28;20035;-88
2022/12/22 14:43:00;;;;;;;14.32;6.30;;;7.60;99.90;;;;;;5036689;28;20531;-88
2022/12/22 14:45:26;;;;;;;19.02;5.88;;;7.60;99.90;;;;;;5053378;28;20031;-88
2022/12/22 14:47:53;;;;;;;19.58;6.32;;;7.60;99.90;;;;;;5053811;28;20025;-88
2022/12/22 14:50:22;;;;;;;15.75;5.95;;;7.60;99.90;;;;;;5045719;28;20045;-88
2022/12/22 14:52:59;;;;;;;12.48;7.05;;;7.60;99.90;;;;;;5033561;28;20492;-88
2022/12/22 14:55:36;;;;;;;15.27;6.80;;;7.70;99.90;;;;;;5033846;28;20087;-88
2022/12/22 14:58:03;;;;;;;14.02;6.85;;;7.60;99.90;;;;;;5036188;28;20368;-88
2022/12/22 15:00:34;;;;;;;15.98;6.63;;;7.70;99.90;;;;;;5052794;28;20051;-88
2022/12/22 15:03:24;;;;;;;22.50;6.32;;;7.70;99.90;;;;;;5052955;28;20044;-88
2022/12/22 15:05:51;;;;;;;20.42;6.65;;;7.80;99.90;;;;;;5038827;28;20129;-88
2022/12/22 15:08:37;;;;;;;18.45;7.10;;;7.70;99.90;;;;;;5062010;28;20029;-88
2022/12/22 15:11:07;;;;;;;26.70;12.50;;;7.70;99.90;;;;;;5030878;28;20025;-88
2022/12/22 15:13:32;;;;;;;20.05;8.70;;;7.70;99.90;;;;;;5065135;28;20029;-89
2022/12/22 15:15:58;;;;;;;17.52;7.25;;;7.80;99.90;;;;;;5050454;28;20067;-89
2022/12/22 15:18:26;;;;;;;15.45;7.15;;;7.70;99.90;;;;;;5047671;28;20055;-88
2022/12/22 15:20:54;;;;;;;22.38;9.88;;;7.80;99.90;;;;;;5028033;28;20389;-89
2022/12/22 15:23:20;;;;;;;20.58;9.75;;;7.80;99.90;;;;;;5049131;28;20507;-88
2022/12/22 15:25:46;;;;;;;24.13;7.35;;;7.80;99.90;;;;;;5029514;28;20055;-88
2022/12/22 15:28:12;;;;;;;21.67;7.72;;;7.70;99.90;;;;;;5032748;28;20030;-86
2022/12/22 15:30:37;;;;;;;16.33;6.25;;;7.80;99.90;;;;;;5045600;28;20033;-86
2022/12/22 15:33:05;;;;;;;16.00;6.65;;;7.80;99.90;;;;;;5028077;28;20108;-86
2022/12/22 15:35:33;;;;;;;12.63;6.65;;;7.80;99.90;;;;;;5065588;28;20095;-86
2022/12/22 15:37:59;;;;;;;18.52;8.05;;;7.80;99.90;;;;;;5023858;28;20057;-86
2022/12/22 15:40:26;;;;;;;14.07;5.60;;;7.80;99.90;;;;;;5029155;28;20793;-86
2022/12/22 15:42:51;;;;;;;16.52;6.95;;;7.80;99.90;;;;;;5046893;28;20078;-87
2022/12/22 15:45:18;;;;;;;16.27;6.38;;;7.80;99.90;;;;;;5024605;28;20461;-86
2022/12/22 15:47:49;;;;;;;15.95;6.05;;;7.80;99.90;;;;;;5046114;28;20029;-86
2022/12/22 15:50:38;;;;;;;21.75;6.63;;;7.80;99.90;;;;;;5035274;28;20435;-87
2022/12/22 15:53:05;;;;;;;15.93;6.25;;;7.80;99.90;;;;;;5051236;28;20187;-85
2022/12/22 15:55:31;;;;;;;40.15;11.52;;;7.80;99.90;;;;;;5051998;28;20033;-86
2022/12/22 15:57:58;;;;;;;21.95;6.60;;;7.90;99.90;;;;;;5051711;28;20029;-84
2022/12/22 16:00:24;;;;;;;21.35;6.00;;;7.80;99.90;;;;;;5033586;28;20106;-84
2022/12/22 16:02:50;;;;;;;26.63;7.25;;;7.80;99.90;;;;;;5022206;28;20074;-84
2022/12/22 16:05:16;;;;;;;31.33;6.78;;;7.80;99.90;;;;;;5034919;28;20029;-84
2022/12/22 16:07:43;;;;;;;40.58;9.68;;;7.80;99.90;;;;;;5051011;28;20020;-84
2022/12/22 16:10:27;;;;;;;43.95;8.93;;;7.80;99.90;;;;;;5068596;28;20484;-85
2022/12/22 16:12:59;;;;;;;51.47;10.45;;;7.80;99.90;;;;;;5067520;28;20102;-85
2022/12/22 16:15:30;;;;;;;64.05;12.65;;;7.80;99.90;;;;;;5067567;28;20043;-85
2022/12/22 16:17:56;;;;;;;73.68;13.75;;;7.80;99.90;;;;;;5034643;28;20114;-85
2022/12/22 16:20:23;;;;;;;65.07;12.40;;;7.80;99.90;;;;;;5034999;28;20758;-86
2022/12/22 16:22:51;;;;;;;85.10;13.00;;;7.80;99.90;;;;;;5051733;28;20125;-86
2022/12/22 16:25:25;;;;;;;57.80;9.52;;;7.80;99.90;;;;;;5034648;28;20388;-85
2022/12/22 16:27:51;;;;;;;67.07;11.32;;;7.80;99.90;;;;;;5047871;28;20469;-86
2022/12/22 16:30:21;;;;;;;65.55;12.90;;;7.80;99.90;;;;;;5050865;28;20035;-86
2022/12/22 16:32:46;;;;;;;57.60;10.02;;;7.90;99.90;;;;;;5035141;28;20115;-86
2022/12/22 16:35:18;;;;;;;57.47;11.05;;;7.70;99.90;;;;;;5052778;28;20052;-85
2022/12/22 16:37:45;;;;;;;53.20;9.25;;;7.70;99.90;;;;;;5051062;28;20468;-85
2022/12/22 16:40:12;;;;;;;66.25;11.63;;;7.70;99.90;;;;;;5051172;28;20049;-85
2022/12/22 16:42:39;;;;;;;89.70;14.07;;;7.70;99.90;;;;;;5050961;28;20031;-85
2022/12/22 16:45:24;;;;;;;68.15;11.50;;;7.80;99.90;;;;;;5051123;28;20039;-86
2022/12/22 16:47:52;;;;;;;94.15;15.23;;;7.70;99.90;;;;;;5052318;28;20030;-85
2022/12/22 16:50:21;;;;;;;92.65;15.80;;;7.80;99.90;;;;;;5046739;28;20025;-85